Terminal Aerodrome Forecast
Issued by NWS

Current Version | Previous Version | Text Only | Print | Product List | Glossary On
Versions: 1 2 3 4 5 6 7 8 9 10 11 12 13
000
FTUS46 KPDT 291100
TAFBDN
TAF
KBDN 291124Z 2912/3012 VRB05KT P6SM SKC
     FM291900 34011KT P6SM FEW200
     FM292200 34012G20KT P6SM BKN200
     FM300400 VRB05KT P6SM FEW080 BKN200=

USA.gov is the U.S. government's official web portal to all federal, state and local government web resources and services.